Time;durP1;ratioP1;P1;durP2;ratioP2;P2;SDS_P1;SDS_P2;PMS_P1;PMS_P2;Temp;Humidity;BMP_temperature;BMP_pressure;BME280_temperature;BME280_humidity;BME280_pressure;Samples;Min_cycle;Max_cycle;Signal;HPM_P1;HPM_P2
2022/06/25 08:46:54;;;;;;;18.97;17.57;;;28.60;98.30;;;;;;6144007;23;20401;-80
2022/06/25 08:49:24;;;;;;;18.07;16.73;;;28.60;98.10;;;;;;6155474;23;20525;-78
2022/06/25 08:51:53;;;;;;;18.40;17.00;;;28.60;98.10;;;;;;6156180;23;20504;-78
2022/06/25 08:54:21;;;;;;;17.73;16.33;;;28.50;97.80;;;;;;6155577;23;20461;-79
2022/06/25 08:56:48;;;;;;;16.93;15.73;;;28.50;97.80;;;;;;6166402;23;20516;-79
2022/06/25 08:59:17;;;;;;;18.70;17.33;;;28.40;97.80;;;;;;6186848;23;20456;-80
2022/06/25 09:01:44;;;;;;;17.67;16.37;;;28.40;97.80;;;;;;6188062;23;20436;-79
2022/06/25 09:04:13;;;;;;;17.83;16.53;;;28.30;97.80;;;;;;6187397;23;20474;-79
2022/06/25 09:06:40;;;;;;;19.33;17.83;;;28.20;97.90;;;;;;6188239;23;20437;-79
2022/06/25 09:09:10;;;;;;;17.47;16.17;;;28.30;98.00;;;;;;6187504;23;20436;-80
2022/06/25 09:11:52;;;;;;;18.83;17.33;;;28.20;98.00;;;;;;6173929;23;20432;-80
2022/06/25 09:14:21;;;;;;;19.40;18.00;;;28.20;98.10;;;;;;6187678;23;20443;-80
2022/06/25 09:16:50;;;;;;;20.20;18.50;;;28.20;97.80;;;;;;6188247;23;20463;-79
2022/06/25 09:19:30;;;;;;;17.73;16.53;;;28.30;97.80;;;;;;6180294;23;20433;-78
2022/06/25 09:21:58;;;;;;;17.70;16.30;;;28.30;97.60;;;;;;6186093;23;20437;-78
2022/06/25 09:24:39;;;;;;;16.47;15.17;;;28.40;97.50;;;;;;6189408;23;20444;-79
2022/06/25 09:27:06;;;;;;;17.57;16.30;;;28.40;97.50;;;;;;6187662;23;20463;-79
2022/06/25 09:29:38;;;;;;;15.63;14.53;;;28.50;97.30;;;;;;6187189;23;20436;-92
2022/06/25 09:32:06;;;;;;;16.33;15.13;;;28.50;97.30;;;;;;6175786;23;20450;-93
2022/06/25 09:34:36;;;;;;;16.67;15.47;;;28.60;96.90;;;;;;6188145;23;20440;-93
2022/06/25 09:37:21;;;;;;;15.10;14.00;;;28.60;96.90;;;;;;6188854;23;20469;-93
2022/06/25 09:39:50;;;;;;;16.10;14.70;;;28.60;96.20;;;;;;6190271;23;20453;-92
2022/06/25 09:42:29;;;;;;;15.07;14.00;;;28.60;96.10;;;;;;6196229;23;20425;-91
2022/06/25 09:45:26;;;;;;;15.20;14.10;;;28.60;96.00;;;;;;6178521;23;20429;-92
2022/06/25 09:47:55;;;;;;;15.17;13.97;;;28.60;95.80;;;;;;6171684;23;20444;-79
2022/06/25 09:50:24;;;;;;;15.03;13.83;;;28.70;95.70;;;;;;6187641;23;20467;-78
2022/06/25 09:52:55;;;;;;;20.30;18.80;;;28.70;95.80;;;;;;6189174;23;20440;-93
2022/06/25 09:55:28;;;;;;;22.10;20.37;;;28.70;96.10;;;;;;6186684;23;20444;-92
2022/06/25 09:58:01;;;;;;;21.57;19.70;;;28.80;96.20;;;;;;6188077;23;20447;-80
2022/06/25 10:00:30;;;;;;;17.00;15.80;;;28.80;95.90;;;;;;6206863;23;20440;-87
2022/06/25 10:02:59;;;;;;;19.13;17.53;;;28.80;95.70;;;;;;6207828;23;20424;-91
2022/06/25 10:05:33;;;;;;;17.10;15.90;;;28.80;95.40;;;;;;6209117;23;20437;-90
2022/06/25 10:08:06;;;;;;;16.90;15.60;;;28.80;95.40;;;;;;6208658;23;20432;-91
2022/06/25 10:10:38;;;;;;;18.30;16.90;;;28.80;95.40;;;;;;6191560;23;20421;-92
2022/06/25 10:13:05;;;;;;;19.03;17.63;;;28.80;95.50;;;;;;6204590;23;20447;-90
2022/06/25 10:15:33;;;;;;;17.13;15.80;;;28.80;95.60;;;;;;6191849;23;20440;-79
2022/06/25 10:18:01;;;;;;;16.60;15.40;;;28.70;95.90;;;;;;6187335;23;20444;-80
2022/06/25 10:20:31;;;;;;;17.10;15.90;;;28.70;96.00;;;;;;6170636;23;20509;-79
2022/06/25 10:23:00;;;;;;;15.27;13.87;;;28.60;96.00;;;;;;6187223;23;20437;-79
2022/06/25 10:25:29;;;;;;;24.67;22.80;;;28.60;95.90;;;;;;6185106;23;20763;-80
2022/06/25 10:28:09;;;;;;;20.30;18.70;;;28.50;95.70;;;;;;6172163;23;20444;-80
2022/06/25 10:31:17;;;;;;;16.50;15.20;;;28.50;95.90;;;;;;6173124;23;20494;-80
2022/06/25 10:33:58;;;;;;;12.50;11.40;;;28.40;95.90;;;;;;6180149;23;20417;-79
2022/06/25 10:36:43;;;;;;;11.77;10.77;;;28.40;95.90;;;;;;6172229;23;20436;-80
2022/06/25 10:39:36;;;;;;;12.27;11.13;;;28.30;95.90;;;;;;6185221;23;20453;-80
2022/06/25 10:45:52;;;;;;;12.70;11.80;;;28.20;95.60;;;;;;6197845;23;20430;-89
2022/06/25 10:48:22;;;;;;;11.10;10.20;;;28.10;95.90;;;;;;6159763;23;20734;-90
2022/06/25 10:50:53;;;;;;;11.27;10.27;;;28.10;95.90;;;;;;6223623;23;20461;-78
2022/06/25 10:53:28;;;;;;;12.50;11.50;;;28.10;95.90;;;;;;6200180;23;20435;-78
2022/06/25 10:56:56;;;;;;;11.90;10.87;;;28.10;96.00;;;;;;6203954;23;20445;-91
2022/06/25 10:59:46;;;;;;;11.53;10.77;;;28.10;95.90;;;;;;6067848;23;20440;-80
2022/06/25 11:02:20;;;;;;;15.90;14.70;;;28.10;96.00;;;;;;6191313;23;20979;-90
2022/06/25 11:04:52;;;;;;;14.73;13.77;;;28.00;96.50;;;;;;6194442;23;20463;-91
2022/06/25 11:07:25;;;;;;;16.43;15.23;;;28.10;96.80;;;;;;6200374;23;20444;-90
2022/06/25 11:09:57;;;;;;;14.00;12.93;;;28.10;96.80;;;;;;6208753;23;20429;-92
2022/06/25 11:12:25;;;;;;;14.73;13.67;;;28.00;96.70;;;;;;6208403;23;20432;-91
2022/06/25 11:15:00;;;;;;;13.00;12.10;;;28.00;96.90;;;;;;6199605;23;20445;-79
2022/06/25 11:17:27;;;;;;;12.90;11.90;;;28.00;96.90;;;;;;6186693;23;20444;-88
2022/06/25 11:20:12;;;;;;;13.47;12.57;;;28.00;97.00;;;;;;6204774;23;20504;-91
2022/06/25 11:22:50;;;;;;;12.67;11.67;;;28.00;97.00;;;;;;6196658;23;20428;-91
2022/06/25 11:30:51;;;;;;;14.30;13.40;;;27.90;97.00;;;;;;6196233;23;20512;-91
2022/06/25 11:33:18;;;;;;;13.60;12.60;;;27.90;96.80;;;;;;6194353;23;20437;-79
2022/06/25 11:35:46;;;;;;;13.97;13.07;;;27.90;96.70;;;;;;6186190;23;20440;-79
2022/06/25 11:38:25;;;;;;;12.37;11.57;;;27.90;96.70;;;;;;6189129;23;20440;-92
2022/06/25 11:41:00;;;;;;;13.80;12.93;;;27.90;96.70;;;;;;6192397;23;20944;-93
2022/06/25 11:43:30;;;;;;;12.70;11.70;;;28.00;96.50;;;;;;6189880;23;20446;-79
2022/06/25 11:46:03;;;;;;;12.20;11.40;;;28.00;96.40;;;;;;6199439;23;20504;-92
2022/06/25 11:48:32;;;;;;;11.87;10.97;;;28.10;96.20;;;;;;6187655;23;20746;-79
2022/06/25 11:51:01;;;;;;;11.53;10.80;;;28.10;96.00;;;;;;6168087;23;20433;-79
2022/06/25 11:53:29;;;;;;;10.83;10.10;;;28.20;95.80;;;;;;6175038;23;20430;-78
2022/06/25 11:56:02;;;;;;;12.20;11.30;;;28.20;95.80;;;;;;6154311;23;20449;-78
2022/06/25 11:58:31;;;;;;;18.40;17.10;;;28.20;95.90;;;;;;6157315;23;20759;-79
2022/06/25 12:01:00;;;;;;;21.60;20.00;;;28.30;95.90;;;;;;6167330;23;20445;-91
2022/06/25 12:03:30;;;;;;;21.80;20.03;;;28.30;96.00;;;;;;6159045;23;20438;-78
2022/06/25 12:05:58;;;;;;;17.50;16.20;;;28.30;96.10;;;;;;6158115;23;20445;-92
2022/06/25 12:08:32;;;;;;;14.20;13.20;;;28.30;96.10;;;;;;6162289;23;20453;-80
2022/06/25 12:11:05;;;;;;;12.13;11.23;;;28.40;96.00;;;;;;6155164;23;20751;-79
2022/06/25 12:13:33;;;;;;;13.27;12.13;;;28.40;95.50;;;;;;6157101;23;20433;-79
2022/06/25 12:16:04;;;;;;;12.87;12.00;;;28.40;95.60;;;;;;6157107;23;20429;-78
2022/06/25 12:18:38;;;;;;;13.87;12.93;;;28.50;95.70;;;;;;6163263;23;20617;-91
2022/06/25 12:21:07;;;;;;;16.83;15.37;;;28.40;95.90;;;;;;6165712;23;20481;-92
2022/06/25 12:24:39;;;;;;;13.97;12.80;;;28.50;96.00;;;;;;6172104;23;20437;-91
2022/06/25 12:27:08;;;;;;;14.77;13.03;;;28.50;95.80;;;;;;6223414;23;20489;-91
2022/06/25 12:29:37;;;;;;;14.33;13.23;;;28.50;95.60;;;;;;6224423;23;20432;-92
2022/06/25 12:32:05;;;;;;;14.60;13.33;;;28.60;95.90;;;;;;6226063;23;20443;-92
2022/06/25 12:34:34;;;;;;;11.87;11.03;;;28.60;95.30;;;;;;6223886;23;20431;-92
2022/06/25 12:37:26;;;;;;;12.00;11.10;;;28.70;95.20;;;;;;6224138;23;20506;-92
2022/06/25 12:39:59;;;;;;;13.33;12.37;;;28.80;94.80;;;;;;6216876;23;20428;-92
2022/06/25 12:42:29;;;;;;;11.60;10.80;;;28.80;94.30;;;;;;6218296;23;20443;-80
2022/06/25 12:44:58;;;;;;;11.93;11.13;;;28.90;94.00;;;;;;6218083;23;20424;-91
2022/06/25 12:47:25;;;;;;;10.70;9.87;;;29.00;93.70;;;;;;6218664;23;20444;-93
2022/06/25 12:49:55;;;;;;;11.00;10.23;;;29.00;93.50;;;;;;6206251;23;20415;-89
2022/06/25 12:52:26;;;;;;;11.87;10.87;;;29.10;93.40;;;;;;6208173;23;20440;-92
2022/06/25 12:54:54;;;;;;;10.40;9.70;;;29.20;93.30;;;;;;6184852;23;20439;-91
2022/06/25 12:57:30;;;;;;;11.40;10.60;;;29.20;93.30;;;;;;6206585;23;20437;-92
2022/06/25 12:59:59;;;;;;;11.20;10.43;;;29.20;93.30;;;;;;6200896;23;20443;-91
2022/06/25 13:02:28;;;;;;;11.53;10.50;;;29.20;93.10;;;;;;6189148;23;20433;-80
2022/06/25 13:05:01;;;;;;;10.50;9.73;;;29.20;93.10;;;;;;6184827;23;20915;-79
2022/06/25 13:07:31;;;;;;;11.63;10.70;;;29.20;93.20;;;;;;6173133;23;20740;-80
2022/06/25 13:09:58;;;;;;;12.00;10.90;;;29.20;93.20;;;;;;6188625;23;20433;-93
2022/06/25 13:12:25;;;;;;;13.57;12.67;;;29.10;93.30;;;;;;6195612;23;20442;-92
2022/06/25 13:14:53;;;;;;;12.93;12.03;;;29.10;93.50;;;;;;6189761;23;20515;-79
2022/06/25 13:17:24;;;;;;;14.70;13.63;;;29.00;93.60;;;;;;6187543;23;20440;-92
2022/06/25 13:19:53;;;;;;;12.40;11.60;;;29.00;93.70;;;;;;6154453;23;20456;-78
2022/06/25 13:22:26;;;;;;;12.13;11.33;;;29.00;93.50;;;;;;6184107;23;20461;-78
2022/06/25 13:25:01;;;;;;;13.80;12.80;;;29.00;93.50;;;;;;6178731;23;20440;-92
2022/06/25 13:27:29;;;;;;;13.63;12.73;;;29.00;93.40;;;;;;6184738;23;20517;-78
2022/06/25 13:29:59;;;;;;;13.23;12.33;;;29.00;93.40;;;;;;6186922;23;20436;-78
2022/06/25 13:32:26;;;;;;;13.00;12.10;;;29.00;93.40;;;;;;6176670;23;20437;-79
2022/06/25 13:34:54;;;;;;;13.50;12.60;;;29.10;93.30;;;;;;6198895;23;20797;-77
2022/06/25 13:37:21;;;;;;;16.77;15.57;;;29.10;93.20;;;;;;6189533;23;20451;-78
2022/06/25 13:39:52;;;;;;;20.50;19.00;;;29.20;93.10;;;;;;6192915;23;20425;-79
2022/06/25 13:42:19;;;;;;;16.83;15.60;;;29.20;93.10;;;;;;6197897;23;20443;-92
2022/06/25 13:44:53;;;;;;;12.27;11.47;;;29.30;92.70;;;;;;6204290;23;20490;-79
2022/06/25 13:47:21;;;;;;;12.90;11.93;;;29.30;92.50;;;;;;6188020;23;20439;-78
2022/06/25 13:49:49;;;;;;;12.50;11.70;;;29.40;92.20;;;;;;6188838;23;20432;-78
2022/06/25 13:52:17;;;;;;;11.90;11.10;;;29.50;91.90;;;;;;6198181;23;20432;-86
2022/06/25 13:54:44;;;;;;;12.33;11.33;;;29.50;91.70;;;;;;6200050;23;20496;-92
2022/06/25 13:57:14;;;;;;;13.73;12.73;;;29.50;91.30;;;;;;6200101;23;20436;-80
2022/06/25 13:59:42;;;;;;;12.93;11.97;;;29.50;91.00;;;;;;6197431;23;20448;-91
2022/06/25 14:02:10;;;;;;;11.40;9.67;;;29.40;91.00;;;;;;6202561;23;20435;-94
2022/06/25 14:04:41;;;;;;;10.70;10.00;;;29.40;93.40;;;;;;6195908;23;20439;-93
2022/06/25 14:07:09;;;;;;;12.07;11.17;;;29.40;94.10;;;;;;6208319;23;20443;-94
2022/06/25 14:09:36;;;;;;;10.17;9.40;;;29.30;94.80;;;;;;6177976;23;20437;-91
2022/06/25 14:12:04;;;;;;;11.37;10.67;;;29.20;94.60;;;;;;6190217;23;20479;-89
2022/06/25 14:14:47;;;;;;;11.80;10.80;;;29.20;94.50;;;;;;6200364;23;20443;-89
2022/06/25 14:20:19;;;;;;;13.10;12.20;;;28.90;95.60;;;;;;6202374;23;20417;-92
2022/06/25 14:22:46;;;;;;;12.60;11.70;;;28.80;95.80;;;;;;6198923;23;20459;-90
2022/06/25 14:27:57;;;;;;;15.83;14.20;;;28.60;99.00;;;;;;6168171;23;20435;-78
2022/06/25 14:30:28;;;;;;;14.77;13.40;;;28.40;99.40;;;;;;6186981;23;20436;-79
2022/06/25 14:32:58;;;;;;;15.20;14.20;;;28.20;99.80;;;;;;6188107;23;20444;-90
2022/06/25 14:35:30;;;;;;;15.80;14.50;;;28.00;99.90;;;;;;6203705;23;20424;-89
2022/06/25 14:43:37;;;;;;;16.40;15.10;;;27.40;99.90;;;;;;6128747;23;20444;-89
2022/06/25 14:46:07;;;;;;;15.43;14.30;;;27.20;99.90;;;;;;6176078;23;20439;-88
2022/06/25 14:48:34;;;;;;;14.53;13.53;;;27.00;99.90;;;;;;6175458;23;20446;-88
2022/06/25 14:51:03;;;;;;;14.03;12.93;;;26.80;99.90;;;;;;6146414;23;20452;-89
2022/06/25 14:53:32;;;;;;;13.27;12.37;;;26.70;99.90;;;;;;6158922;23;20430;-88
2022/06/25 14:56:00;;;;;;;18.73;13.40;;;26.60;99.90;;;;;;6161732;23;20745;-88
2022/06/25 14:58:29;;;;;;;13.00;11.90;;;26.50;99.90;;;;;;6161043;23;20446;-79
2022/06/25 15:00:58;;;;;;;12.67;11.87;;;26.40;99.90;;;;;;6162929;23;20444;-87
2022/06/25 15:03:35;;;;;;;11.30;10.60;;;26.40;99.90;;;;;;6154245;23;20444;-88
2022/06/25 15:06:06;;;;;;;13.53;12.63;;;26.30;99.90;;;;;;6175224;23;20441;-90
2022/06/25 15:08:38;;;;;;;11.80;10.80;;;26.20;99.90;;;;;;6177796;23;20442;-88
2022/06/25 15:11:05;;;;;;;13.77;12.73;;;26.20;99.90;;;;;;6179737;23;20444;-87
2022/06/25 15:17:21;;;;;;;13.43;12.30;;;26.20;99.90;;;;;;6132111;23;20421;-87
2022/06/25 15:19:49;;;;;;;12.70;11.80;;;26.20;99.90;;;;;;6049714;23;20452;-85
2022/06/25 15:22:18;;;;;;;13.83;12.70;;;26.20;99.90;;;;;;6148419;23;20433;-90
2022/06/25 15:24:45;;;;;;;14.03;13.03;;;26.10;99.90;;;;;;6171013;23;20441;-77
2022/06/25 15:27:13;;;;;;;16.60;15.30;;;26.20;99.90;;;;;;6174007;23;20438;-88
2022/06/25 15:29:49;;;;;;;21.00;19.40;;;26.20;99.90;;;;;;6181644;23;20424;-88
2022/06/25 15:32:17;;;;;;;19.83;18.20;;;26.20;99.90;;;;;;6181429;23;20504;-87
2022/06/25 15:37:44;;;;;;;18.20;16.90;;;26.20;99.90;;;;;;6163851;23;20429;-85
2022/06/25 15:40:14;;;;;;;20.10;18.40;;;26.20;99.90;;;;;;6175671;23;20432;-87
2022/06/25 15:42:41;;;;;;;19.03;17.57;;;26.20;99.90;;;;;;6166189;23;20440;-79
2022/06/25 15:45:10;;;;;;;17.10;15.83;;;26.20;99.90;;;;;;6155914;23;20441;-79
2022/06/25 15:47:41;;;;;;;17.80;16.53;;;26.20;99.90;;;;;;6153856;23;20444;-87
2022/06/25 15:50:10;;;;;;;17.57;16.23;;;26.20;99.90;;;;;;6149224;23;20428;-79
2022/06/25 15:52:38;;;;;;;17.60;16.40;;;26.20;99.90;;;;;;6188466;23;20442;-80
2022/06/25 15:55:07;;;;;;;16.70;15.40;;;26.20;99.90;;;;;;6162817;23;20505;-90
2022/06/25 15:57:34;;;;;;;17.10;15.80;;;26.20;99.90;;;;;;6161840;23;20438;-88
2022/06/25 16:00:01;;;;;;;15.10;14.00;;;26.30;99.90;;;;;;6189859;23;20859;-89
2022/06/25 16:02:31;;;;;;;16.80;15.50;;;26.30;99.90;;;;;;6188988;23;20492;-88
2022/06/25 16:05:01;;;;;;;17.20;15.87;;;26.30;99.90;;;;;;6188115;23;20435;-88
2022/06/25 16:13:48;;;;;;;16.87;15.67;;;26.40;99.90;;;;;;6188406;23;20444;-88
2022/06/25 16:16:15;;;;;;;16.70;15.50;;;26.50;99.90;;;;;;6188750;23;20440;-88
2022/06/25 16:18:42;;;;;;;18.23;16.73;;;26.50;99.90;;;;;;6189716;23;20444;-88
2022/06/25 16:23:52;;;;;;;17.33;16.03;;;26.60;99.90;;;;;;6171501;23;20769;-88
2022/06/25 16:26:20;;;;;;;15.13;14.20;;;26.60;99.90;;;;;;6188378;23;20955;-88
2022/06/25 16:28:48;;;;;;;18.50;16.90;;;26.70;99.90;;;;;;6186444;23;20437;-88
2022/06/25 16:31:16;;;;;;;16.40;15.27;;;26.70;99.90;;;;;;6200288;23;20427;-88
2022/06/25 16:33:44;;;;;;;16.57;15.47;;;26.70;99.90;;;;;;6193349;23;20442;-87
2022/06/25 16:36:17;;;;;;;17.40;16.10;;;26.80;99.90;;;;;;6197817;23;20445;-79
2022/06/25 16:38:46;;;;;;;18.77;17.07;;;26.80;99.90;;;;;;6188295;23;20433;-79
2022/06/25 16:41:15;;;;;;;19.40;17.90;;;26.80;99.90;;;;;;6191738;23;20439;-87
2022/06/25 16:44:04;;;;;;;18.47;17.07;;;26.80;99.90;;;;;;6189818;23;20433;-91
2022/06/25 16:46:34;;;;;;;17.93;16.63;;;26.80;99.90;;;;;;6191082;23;20451;-88
2022/06/25 16:49:04;;;;;;;18.20;16.90;;;26.90;99.90;;;;;;6210183;23;20769;-78
2022/06/25 16:51:40;;;;;;;17.50;16.30;;;26.90;99.90;;;;;;6218752;23;20435;-87
2022/06/25 16:54:14;;;;;;;16.33;15.23;;;26.90;99.90;;;;;;6218775;23;20768;-89
2022/06/25 16:56:41;;;;;;;20.20;18.70;;;26.90;99.90;;;;;;6215956;23;20931;-78
2022/06/25 16:59:10;;;;;;;19.60;18.10;;;26.90;99.90;;;;;;6200578;23;21045;-78
2022/06/25 17:01:37;;;;;;;18.30;17.00;;;26.90;99.90;;;;;;6215994;23;20436;-89
2022/06/25 17:04:06;;;;;;;11.43;10.33;;;26.90;99.90;;;;;;6214762;23;20428;-87
2022/06/25 17:06:33;;;;;;;8.70;8.10;;;26.90;99.90;;;;;;6217481;23;20440;-78
2022/06/25 17:09:00;;;;;;;9.30;8.70;;;26.90;99.90;;;;;;6215932;23;20436;-88
2022/06/25 17:11:28;;;;;;;9.33;8.73;;;27.00;99.90;;;;;;6216332;23;20935;-89
2022/06/25 17:13:55;;;;;;;8.47;7.77;;;27.00;99.90;;;;;;6214300;23;20472;-78
2022/06/25 17:19:44;;;;;;;13.40;12.50;;;27.20;99.90;;;;;;6202027;23;20517;-79
2022/06/25 17:22:11;;;;;;;16.27;15.07;;;27.20;99.90;;;;;;6216665;23;20435;-78
2022/06/25 17:24:38;;;;;;;17.00;15.90;;;27.20;99.90;;;;;;6216453;23;20434;-87
2022/06/25 17:27:05;;;;;;;16.00;14.90;;;27.20;99.90;;;;;;6216249;23;20436;-87
2022/06/25 17:29:34;;;;;;;15.40;14.40;;;27.20;99.90;;;;;;6216194;23;20436;-79
2022/06/25 17:32:03;;;;;;;14.87;13.80;;;27.20;99.90;;;;;;6215946;23;20435;-87
2022/06/25 17:34:30;;;;;;;15.37;14.37;;;27.10;99.90;;;;;;6216186;23;20435;-79
2022/06/25 17:36:59;;;;;;;14.37;13.37;;;27.10;99.90;;;;;;6214632;23;20443;-78
2022/06/25 17:39:26;;;;;;;16.70;15.50;;;27.00;99.90;;;;;;6215814;23;20460;-87
2022/06/25 17:41:54;;;;;;;16.03;14.87;;;26.90;99.90;;;;;;6204284;23;20723;-88
2022/06/25 17:44:21;;;;;;;17.80;16.60;;;26.90;99.90;;;;;;6216251;23;20438;-79
2022/06/25 17:46:52;;;;;;;19.73;18.30;;;26.80;99.90;;;;;;6214525;23;20456;-88
2022/06/25 17:49:27;;;;;;;20.73;19.23;;;26.80;99.90;;;;;;6209096;23;20436;-80
2022/06/25 17:51:54;;;;;;;21.37;19.83;;;26.70;99.90;;;;;;6217236;23;20431;-87
2022/06/25 17:54:21;;;;;;;21.20;19.70;;;26.60;99.90;;;;;;6221964;23;20440;-78
2022/06/25 17:56:48;;;;;;;21.23;19.63;;;26.60;99.90;;;;;;6224217;23;20436;-78
2022/06/25 17:59:17;;;;;;;21.30;19.80;;;26.60;99.90;;;;;;6221724;23;20948;-77
2022/06/25 18:01:44;;;;;;;21.50;19.90;;;26.60;99.90;;;;;;6217383;23;20502;-78
2022/06/25 18:04:12;;;;;;;21.90;20.30;;;26.50;99.90;;;;;;6218234;23;20428;-88
2022/06/25 18:06:41;;;;;;;20.03;18.63;;;26.50;99.90;;;;;;6216577;23;20970;-88
2022/06/25 18:09:13;;;;;;;20.63;19.13;;;26.50;99.90;;;;;;6215186;23;20777;-88
2022/06/25 18:11:40;;;;;;;19.43;17.83;;;26.40;99.90;;;;;;6203507;23;20979;-78
2022/06/25 18:14:07;;;;;;;18.80;17.40;;;26.40;99.90;;;;;;6216137;23;20519;-78
2022/06/25 18:16:34;;;;;;;19.33;17.87;;;26.40;99.90;;;;;;6203657;23;20435;-79
2022/06/25 18:19:02;;;;;;;19.60;18.10;;;26.40;99.90;;;;;;6215613;23;20435;-88
2022/06/25 18:21:30;;;;;;;16.83;15.60;;;26.40;99.90;;;;;;6221331;23;20507;-88
2022/06/25 18:24:01;;;;;;;17.77;16.13;;;26.40;99.90;;;;;;6220696;23;20742;-87
2022/06/25 18:26:28;;;;;;;20.73;18.93;;;26.40;99.90;;;;;;6230285;23;20428;-87
2022/06/25 18:29:22;;;;;;;18.00;16.67;;;26.40;99.90;;;;;;6222258;23;20431;-88
2022/06/25 18:31:50;;;;;;;16.07;14.70;;;26.40;99.90;;;;;;6220392;23;20432;-87
2022/06/25 18:34:17;;;;;;;17.80;16.50;;;26.40;99.90;;;;;;6226518;23;20501;-87
2022/06/25 18:36:44;;;;;;;16.23;14.93;;;26.40;99.90;;;;;;6220552;23;20447;-79
2022/06/25 18:39:13;;;;;;;16.47;15.17;;;26.40;99.90;;;;;;6207439;23;20458;-79
2022/06/25 18:41:43;;;;;;;14.83;13.73;;;26.40;99.90;;;;;;6218814;23;20435;-78
2022/06/25 18:44:11;;;;;;;15.40;14.10;;;26.40;99.90;;;;;;6218729;23;20424;-78
2022/06/25 18:46:38;;;;;;;16.17;14.90;;;26.40;99.90;;;;;;6206753;23;20448;-79
2022/06/25 18:49:07;;;;;;;14.70;13.70;;;26.30;99.90;;;;;;6216263;23;20950;-78
2022/06/25 18:51:40;;;;;;;14.00;12.90;;;26.30;99.90;;;;;;6217048;23;20436;-79
2022/06/25 18:54:09;;;;;;;14.57;13.50;;;26.30;99.90;;;;;;6216825;23;20440;-78
2022/06/25 18:56:38;;;;;;;15.10;14.00;;;26.30;99.90;;;;;;6217363;23;20923;-78
2022/06/25 18:59:05;;;;;;;14.80;13.80;;;26.30;99.90;;;;;;6216460;23;20442;-88
2022/06/25 19:01:38;;;;;;;13.60;12.57;;;26.20;99.90;;;;;;6217282;23;20446;-87
2022/06/25 19:04:06;;;;;;;13.87;13.00;;;26.10;99.90;;;;;;6201464;23;20795;-87
2022/06/25 19:06:38;;;;;;;14.00;13.10;;;26.10;99.90;;;;;;6217934;23;20439;-88
2022/06/25 19:12:14;;;;;;;16.03;14.87;;;25.90;99.90;;;;;;6215402;23;20428;-79
2022/06/25 19:14:43;;;;;;;16.00;14.70;;;25.90;99.90;;;;;;6216180;23;20439;-78
2022/06/25 19:17:11;;;;;;;16.50;15.20;;;25.80;99.90;;;;;;6216207;23;20440;-78
2022/06/25 19:19:38;;;;;;;15.57;14.47;;;25.70;99.90;;;;;;6216315;23;20491;-89
2022/06/25 19:22:09;;;;;;;14.40;13.40;;;25.60;99.90;;;;;;6216247;23;20436;-87
2022/06/25 19:24:36;;;;;;;18.60;17.07;;;25.60;99.90;;;;;;6216982;23;20428;-89
2022/06/25 19:27:05;;;;;;;17.00;15.60;;;25.50;99.90;;;;;;6198825;23;20483;-80
2022/06/25 19:29:32;;;;;;;16.00;14.77;;;25.40;99.90;;;;;;6217207;23;20464;-88
2022/06/25 19:32:03;;;;;;;18.27;16.87;;;25.40;99.90;;;;;;6217233;23;20444;-77
2022/06/25 19:34:30;;;;;;;19.10;17.60;;;25.30;99.90;;;;;;6215645;23;20427;-78
2022/06/25 19:36:57;;;;;;;18.50;17.23;;;25.20;99.90;;;;;;6214928;23;20797;-78
2022/06/25 19:39:24;;;;;;;17.30;15.97;;;25.20;99.90;;;;;;6198532;23;20436;-79
2022/06/25 19:45:24;;;;;;;18.67;17.23;;;25.10;99.90;;;;;;6212822;23;20444;-78
2022/06/25 19:47:51;;;;;;;20.20;18.60;;;25.00;99.90;;;;;;6125018;23;20438;-78
2022/06/25 19:50:18;;;;;;;17.73;16.43;;;25.00;99.90;;;;;;6125358;23;20435;-79
2022/06/25 19:52:45;;;;;;;18.53;17.10;;;24.90;99.90;;;;;;6165814;23;20432;-78
2022/06/25 19:55:12;;;;;;;19.40;18.00;;;24.80;99.90;;;;;;6216125;23;20495;-79
2022/06/25 19:57:39;;;;;;;17.40;16.10;;;24.80;99.90;;;;;;6216730;23;20436;-79
2022/06/25 20:00:12;;;;;;;20.23;18.43;;;24.80;99.90;;;;;;6216055;23;20428;-78
2022/06/25 20:02:39;;;;;;;18.57;17.17;;;24.80;99.90;;;;;;6215273;23;20440;-79
2022/06/25 20:05:08;;;;;;;19.50;17.90;;;24.80;99.90;;;;;;6222303;23;20438;-88
2022/06/25 20:07:36;;;;;;;19.20;17.70;;;24.70;99.90;;;;;;6217528;23;20463;-80
2022/06/25 20:10:09;;;;;;;20.80;19.00;;;24.70;99.90;;;;;;6217469;23;20431;-79
2022/06/25 20:12:37;;;;;;;19.97;18.47;;;24.70;99.90;;;;;;6216958;23;20751;-79
2022/06/25 20:15:06;;;;;;;17.90;16.50;;;24.60;99.90;;;;;;6220032;23;20708;-89
2022/06/25 20:17:34;;;;;;;17.30;16.07;;;24.60;99.90;;;;;;6220473;23;20436;-90
2022/06/25 20:20:27;;;;;;;19.90;18.40;;;24.60;99.90;;;;;;6207333;23;20450;-89
2022/06/25 20:22:55;;;;;;;16.83;15.73;;;24.60;99.90;;;;;;6221027;23;20440;-86
2022/06/25 20:25:33;;;;;;;18.00;16.60;;;24.60;99.90;;;;;;6220750;23;20436;-78
2022/06/25 20:28:02;;;;;;;17.63;16.03;;;24.60;99.90;;;;;;6219390;23;20436;-89
2022/06/25 20:30:33;;;;;;;17.67;16.47;;;24.60;99.90;;;;;;6219623;23;20432;-88
2022/06/25 20:33:02;;;;;;;18.43;17.03;;;24.60;99.90;;;;;;6205751;23;20442;-79
2022/06/25 20:35:29;;;;;;;16.60;15.20;;;24.60;99.90;;;;;;6216499;23;20515;-79
2022/06/25 20:37:57;;;;;;;20.93;19.20;;;24.50;99.90;;;;;;6217348;23;20776;-87
2022/06/25 20:40:24;;;;;;;16.83;15.40;;;24.50;99.90;;;;;;6218631;23;20718;-79
2022/06/25 20:42:52;;;;;;;16.43;15.33;;;24.50;99.90;;;;;;6217995;23;20498;-87
2022/06/25 20:45:28;;;;;;;17.40;16.20;;;24.50;99.90;;;;;;6206006;23;20779;-88
2022/06/25 20:47:55;;;;;;;18.73;17.20;;;24.50;99.90;;;;;;6216435;23;20436;-88
2022/06/25 20:51:00;;;;;;;;;;;;;;;;;;;;;
2022/06/25 20:53:27;;;;;;;19.30;17.90;;;24.50;99.90;;;;;;6207012;23;20993;-89
2022/06/25 20:55:54;;;;;;;17.53;16.13;;;24.50;99.90;;;;;;6214650;23;20424;-88
2022/06/25 20:58:21;;;;;;;18.63;17.13;;;24.50;99.90;;;;;;6229609;23;20455;-88
2022/06/25 21:00:54;;;;;;;19.43;17.93;;;24.40;99.90;;;;;;6229725;23;20447;-78
2022/06/25 21:08:51;;;;;;;22.47;20.60;;;24.40;99.90;;;;;;6218474;23;20482;-87
2022/06/25 21:11:18;;;;;;;20.90;19.40;;;24.40;99.90;;;;;;6234751;23;20479;-88
2022/06/25 21:13:45;;;;;;;20.13;18.43;;;24.30;99.90;;;;;;6220780;23;20431;-78
2022/06/25 21:16:12;;;;;;;22.67;20.77;;;24.40;99.90;;;;;;6218729;23;20432;-89
2022/06/25 21:18:39;;;;;;;22.00;20.30;;;24.30;99.90;;;;;;6220503;23;20435;-78
2022/06/25 21:21:08;;;;;;;21.27;19.50;;;24.30;99.90;;;;;;6214676;23;20715;-78
2022/06/25 21:26:21;;;;;;;17.07;15.87;;;24.30;99.90;;;;;;6199641;23;20465;-78
2022/06/25 21:28:48;;;;;;;22.33;20.13;;;24.30;99.90;;;;;;6201477;23;20972;-89
2022/06/25 21:31:17;;;;;;;21.10;19.50;;;24.30;99.90;;;;;;6219850;23;20431;-88
2022/06/25 21:33:47;;;;;;;18.53;17.23;;;24.30;99.90;;;;;;6218247;23;20494;-78
2022/06/25 21:36:15;;;;;;;18.43;17.13;;;24.30;99.90;;;;;;6213904;23;20436;-78
2022/06/25 21:38:43;;;;;;;15.90;14.80;;;24.30;99.90;;;;;;6215123;23;20490;-78
2022/06/25 21:41:11;;;;;;;18.67;17.33;;;24.30;99.90;;;;;;6217062;23;20432;-88
2022/06/25 21:43:38;;;;;;;17.53;16.03;;;24.40;99.90;;;;;;6221505;23;20458;-89
2022/06/25 21:46:06;;;;;;;16.80;15.60;;;24.30;99.90;;;;;;6218672;23;20930;-89
2022/06/25 21:48:33;;;;;;;23.07;21.20;;;24.30;99.90;;;;;;6218157;23;20447;-80
2022/06/25 21:51:00;;;;;;;24.17;22.27;;;24.40;99.90;;;;;;6217050;23;20439;-79
2022/06/25 21:53:28;;;;;;;27.57;25.37;;;24.30;99.90;;;;;;6217079;23;20805;-78
2022/06/25 21:55:56;;;;;;;24.37;22.67;;;24.30;99.90;;;;;;6217411;23;20500;-78
2022/06/25 21:58:23;;;;;;;23.67;21.87;;;24.30;99.90;;;;;;6217160;23;20439;-78
2022/06/25 22:00:51;;;;;;;20.53;19.03;;;24.30;99.90;;;;;;6217920;23;20486;-79
2022/06/25 22:03:20;;;;;;;23.40;21.60;;;24.30;99.90;;;;;;6205048;23;20447;-79
2022/06/25 22:05:47;;;;;;;19.57;18.27;;;24.30;99.90;;;;;;6218004;23;20511;-78
2022/06/25 22:08:18;;;;;;;20.60;18.93;;;24.20;99.90;;;;;;6219097;23;20490;-79
2022/06/25 22:10:46;;;;;;;20.83;19.20;;;24.20;99.90;;;;;;6218248;23;20420;-79
2022/06/25 22:13:13;;;;;;;21.00;19.57;;;24.20;99.90;;;;;;6219528;23;20432;-78
2022/06/25 22:15:40;;;;;;;20.73;19.20;;;24.20;99.90;;;;;;6219091;23;20443;-80
2022/06/25 22:18:08;;;;;;;20.27;18.87;;;24.20;99.90;;;;;;6218676;23;20439;-78
2022/06/25 22:20:51;;;;;;;21.43;19.73;;;24.10;99.90;;;;;;6221731;23;20427;-88
2022/06/25 22:23:19;;;;;;;20.00;18.70;;;24.10;99.90;;;;;;6238053;23;20443;-88
2022/06/25 22:26:40;;;;;;;21.00;19.50;;;24.10;99.90;;;;;;6233549;23;20427;-88